createdAt,value
2017-10-25T00:01:17.878Z,14.48
2017-10-25T00:02:17.844Z,14.63
2017-10-25T00:04:12.408Z,14.53
2017-10-25T00:05:12.387Z,14.59
2017-10-25T00:07:05.715Z,14.45
2017-10-25T00:08:05.705Z,14.58
2017-10-25T00:10:00.425Z,14.58
2017-10-25T00:11:00.372Z,14.45
2017-10-25T00:12:55.064Z,14.47
2017-10-25T00:13:55.064Z,14.47
2017-10-25T00:15:49.417Z,14.48
2017-10-25T00:16:49.356Z,14.36
2017-10-25T00:18:42.744Z,14.37
2017-10-25T00:19:42.718Z,14.48
2017-10-25T00:21:37.463Z,14.41
2017-10-25T00:22:37.414Z,14.47
2017-10-25T00:24:31.769Z,14.47
2017-10-25T00:25:31.774Z,14.45
2017-10-25T00:27:25.158Z,14.47
2017-10-25T00:28:25.097Z,14.36
2017-10-25T00:30:18.501Z,14.25
2017-10-25T00:31:18.434Z,14.37
2017-10-25T00:33:11.796Z,14.29
2017-10-25T00:34:11.753Z,14.36
2017-10-25T00:36:06.398Z,14.30
2017-10-25T00:37:06.352Z,14.30
2017-10-25T00:39:01.084Z,14.28
2017-10-25T00:40:01.004Z,14.33
2017-10-25T00:41:55.561Z,14.32
2017-10-25T00:42:55.560Z,14.30
2017-10-25T00:44:50.137Z,14.29
2017-10-25T00:45:50.065Z,14.18
2017-10-25T00:47:43.578Z,14.35
2017-10-25T00:48:43.564Z,14.28
2017-10-25T00:50:38.209Z,14.41
2017-10-25T00:51:38.183Z,14.28
2017-10-25T00:53:31.555Z,14.28
2017-10-25T00:54:31.535Z,14.29
2017-10-25T00:56:24.975Z,14.28
2017-10-25T00:57:24.894Z,14.30
2017-10-25T00:59:19.232Z,14.37
2017-10-25T01:00:19.187Z,14.33
2017-10-25T01:02:12.587Z,14.35
2017-10-25T01:03:12.548Z,14.48
2017-10-25T01:05:07.303Z,14.30
2017-10-25T01:06:07.207Z,14.33
2017-10-25T01:08:00.555Z,14.30
2017-10-25T01:09:00.511Z,14.32
2017-10-25T01:10:53.889Z,14.29
2017-10-25T01:11:53.879Z,14.36
2017-10-25T01:13:48.327Z,14.41
2017-10-25T01:14:48.323Z,14.28
2017-10-25T01:16:42.802Z,14.41
2017-10-25T01:17:42.777Z,14.37
2017-10-25T01:19:36.188Z,14.37
2017-10-25T01:20:36.108Z,14.37
2017-10-25T01:22:30.885Z,14.35
2017-10-25T01:23:30.874Z,14.40
2017-10-25T01:25:25.563Z,14.43
2017-10-25T01:26:25.500Z,14.48
2017-10-25T01:28:19.835Z,14.48
2017-10-25T01:29:19.824Z,14.50
2017-10-25T01:31:13.234Z,14.44
2017-10-25T01:32:13.189Z,14.37
2017-10-25T01:34:06.694Z,14.43
2017-10-25T01:35:06.669Z,14.35
2017-10-25T01:37:01.211Z,14.44
2017-10-25T01:38:01.124Z,14.28
2017-10-25T01:39:55.656Z,14.35
2017-10-25T01:40:55.631Z,14.36
2017-10-25T01:42:50.408Z,14.36
2017-10-25T01:43:50.298Z,14.40
2017-10-25T01:45:46.503Z,14.28
2017-10-25T01:46:46.439Z,14.41
2017-10-25T01:48:40.874Z,14.35
2017-10-25T01:49:40.790Z,14.43
2017-10-25T01:51:34.136Z,14.30
2017-10-25T01:52:34.119Z,14.28
2017-10-25T01:54:27.793Z,14.29
2017-10-25T01:55:27.734Z,14.37
2017-10-25T01:57:21.241Z,14.40
2017-10-25T01:58:21.222Z,14.33
2017-10-25T02:00:14.632Z,14.32
2017-10-25T02:01:14.574Z,14.32
2017-10-25T02:03:07.974Z,14.30
2017-10-25T02:04:07.921Z,14.36
2017-10-25T02:06:01.293Z,14.29
2017-10-25T02:07:01.252Z,14.36
2017-10-25T02:08:54.596Z,14.36
2017-10-25T02:09:54.571Z,14.18
2017-10-25T02:11:48.934Z,14.33
2017-10-25T02:12:48.902Z,14.35
2017-10-25T02:14:42.241Z,14.35
2017-10-25T02:15:42.244Z,14.29
2017-10-25T02:17:35.622Z,14.30
2017-10-25T02:18:35.566Z,14.33
2017-10-25T02:20:28.983Z,14.30
2017-10-25T02:21:28.926Z,14.32
2017-10-25T02:23:23.598Z,14.29
2017-10-25T02:24:23.511Z,14.29
2017-10-25T02:26:18.175Z,14.44
2017-10-25T02:27:18.134Z,14.43
2017-10-25T02:29:12.526Z,14.41
2017-10-25T02:30:12.454Z,14.35
2017-10-25T02:32:05.822Z,14.33
2017-10-25T02:33:05.826Z,14.35
2017-10-25T02:35:02.071Z,14.36
2017-10-25T02:36:02.002Z,14.33
2017-10-25T02:37:55.443Z,14.32
2017-10-25T02:38:55.460Z,14.35
2017-10-25T02:40:49.853Z,14.36
2017-10-25T02:41:49.772Z,14.25
2017-10-25T02:43:43.121Z,14.30
2017-10-25T02:44:43.111Z,14.32
2017-10-25T02:46:36.480Z,14.41
2017-10-25T02:47:36.457Z,14.33
2017-10-25T02:49:29.820Z,14.36
2017-10-25T02:50:29.748Z,14.36
2017-10-25T02:52:23.139Z,14.40
2017-10-25T02:53:23.087Z,14.36
2017-10-25T02:55:16.451Z,14.47
2017-10-25T02:56:16.451Z,14.33
2017-10-25T02:58:09.825Z,14.40
2017-10-25T02:59:09.782Z,14.37
2017-10-25T03:01:03.170Z,14.44
2017-10-25T03:02:03.138Z,14.30
2017-10-25T03:03:57.850Z,14.32
2017-10-25T03:04:57.756Z,14.33
2017-10-25T03:06:52.251Z,14.32
2017-10-25T03:07:52.227Z,14.30
2017-10-25T03:09:46.709Z,14.36
2017-10-25T03:10:46.649Z,14.28
2017-10-25T03:12:40.008Z,14.29
2017-10-25T03:13:39.976Z,14.37
2017-10-25T03:15:34.331Z,14.36
2017-10-25T03:16:34.305Z,14.32
2017-10-25T03:18:28.701Z,14.25
2017-10-25T03:19:28.647Z,14.18
2017-10-25T03:21:22.071Z,14.12
2017-10-25T03:22:22.003Z,14.11
2017-10-25T03:24:15.391Z,14.11
2017-10-25T03:25:15.325Z,14.12
2017-10-25T03:27:08.825Z,14.07
2017-10-25T03:28:08.795Z,14.10
2017-10-25T03:30:03.129Z,14.07
2017-10-25T03:31:03.113Z,14.03
2017-10-25T03:32:56.491Z,14.04
2017-10-25T03:33:56.435Z,14.05
2017-10-25T03:35:49.799Z,14.05
2017-10-25T03:36:49.793Z,13.95
2017-10-25T03:38:43.211Z,14.07
2017-10-25T03:39:43.125Z,14.03
2017-10-25T03:41:36.494Z,14.07
2017-10-25T03:42:36.449Z,13.99
2017-10-25T03:44:29.936Z,14.08
2017-10-25T03:45:29.837Z,14.07
2017-10-25T03:47:23.184Z,14.08
2017-10-25T03:48:23.165Z,14.11
2017-10-25T03:50:16.588Z,14.08
2017-10-25T03:51:16.519Z,14.08
2017-10-25T03:53:10.896Z,14.08
2017-10-25T03:54:10.844Z,14.15
2017-10-25T03:56:04.217Z,14.10
2017-10-25T03:57:04.182Z,14.12
2017-10-25T03:58:58.512Z,14.11
2017-10-25T03:59:58.554Z,14.12
2017-10-25T04:01:51.873Z,14.10
2017-10-25T04:02:51.848Z,14.22
2017-10-25T04:04:46.531Z,14.14
2017-10-25T04:05:46.521Z,14.10
2017-10-25T04:07:41.172Z,14.17
2017-10-25T04:08:41.116Z,14.20
2017-10-25T04:10:34.666Z,14.15
2017-10-25T04:11:34.660Z,14.12
2017-10-25T04:13:28.169Z,14.15
2017-10-25T04:14:28.091Z,14.22
2017-10-25T04:16:23.568Z,14.29
2017-10-25T04:17:23.539Z,14.20
2017-10-25T04:19:17.037Z,14.18
2017-10-25T04:20:16.959Z,14.17
2017-10-25T04:22:11.623Z,14.22
2017-10-25T04:23:11.596Z,14.26
2017-10-25T04:25:05.107Z,14.26
2017-10-25T04:26:05.062Z,14.18
2017-10-25T04:27:58.731Z,14.22
2017-10-25T04:28:58.688Z,14.18
2017-10-25T04:30:52.139Z,14.11
2017-10-25T04:31:52.064Z,14.08
2017-10-25T04:33:45.466Z,14.04
2017-10-25T04:34:45.387Z,14.10
2017-10-25T04:36:39.930Z,14.07
2017-10-25T04:37:39.905Z,14.03
2017-10-25T04:39:36.063Z,13.96
2017-10-25T04:40:36.036Z,13.97
2017-10-25T04:42:31.943Z,14.05
2017-10-25T04:43:31.854Z,14.00
2017-10-25T04:45:26.333Z,14.04
2017-10-25T04:46:26.285Z,13.92
2017-10-25T04:48:19.668Z,14.00
2017-10-25T04:49:19.640Z,14.05
2017-10-25T04:51:12.969Z,14.15
2017-10-25T04:52:12.961Z,14.08
2017-10-25T04:54:06.659Z,14.04
2017-10-25T04:55:06.581Z,14.00
2017-10-25T04:57:01.289Z,14.07
2017-10-25T04:58:01.274Z,14.04
2017-10-25T04:59:55.959Z,14.07
2017-10-25T05:00:55.947Z,14.04
2017-10-25T05:02:50.349Z,13.97
2017-10-25T05:03:50.342Z,13.92
2017-10-25T05:05:45.045Z,13.90
2017-10-25T05:06:44.998Z,13.96
2017-10-25T05:08:39.642Z,14.04
2017-10-25T05:09:39.628Z,13.92
2017-10-25T05:11:33.237Z,13.92
2017-10-25T05:12:33.177Z,13.87
2017-10-25T05:14:27.861Z,13.89
2017-10-25T05:15:27.841Z,13.89
2017-10-25T05:17:21.422Z,13.77
2017-10-25T05:18:21.316Z,13.78
2017-10-25T05:20:14.698Z,13.70
2017-10-25T05:21:14.669Z,13.71
2017-10-25T05:23:09.123Z,13.63
2017-10-25T05:24:09.088Z,13.70
2017-10-25T05:26:02.419Z,13.54
2017-10-25T05:27:02.419Z,13.60
2017-10-25T05:28:55.843Z,13.70
2017-10-25T05:29:55.798Z,13.67
2017-10-25T05:31:49.091Z,13.70
2017-10-25T05:32:49.086Z,13.59
2017-10-25T05:34:42.488Z,13.67
2017-10-25T05:35:42.449Z,13.62
2017-10-25T05:37:37.068Z,13.60
2017-10-25T05:38:37.032Z,13.60
2017-10-25T05:40:30.439Z,13.53
2017-10-25T05:41:30.378Z,13.57
2017-10-25T05:43:24.864Z,13.46
2017-10-25T05:44:24.848Z,13.54
2017-10-25T05:46:18.288Z,13.50
2017-10-25T05:47:18.260Z,13.50
2017-10-25T05:49:11.676Z,13.49
2017-10-25T05:50:11.602Z,13.54
2017-10-25T05:52:05.002Z,13.56
2017-10-25T05:53:04.945Z,13.44
2017-10-25T05:54:58.312Z,13.44
2017-10-25T05:55:58.306Z,13.47
2017-10-25T05:57:52.668Z,13.35
2017-10-25T05:58:52.627Z,13.49
2017-10-25T06:00:46.975Z,13.46
2017-10-25T06:01:46.967Z,13.33
2017-10-25T06:03:40.428Z,13.37
2017-10-25T06:04:40.292Z,13.35
2017-10-25T06:06:33.670Z,13.27
2017-10-25T06:07:33.610Z,13.28
2017-10-25T06:09:28.005Z,13.33
2017-10-25T06:10:27.967Z,13.37
2017-10-25T06:12:22.301Z,13.28
2017-10-25T06:13:22.297Z,13.39
2017-10-25T06:15:15.682Z,13.31
2017-10-25T06:16:15.662Z,13.35
2017-10-25T06:18:08.974Z,13.30
2017-10-25T06:19:08.965Z,13.39
2017-10-25T06:21:03.343Z,13.33
2017-10-25T06:22:03.290Z,13.35
2017-10-25T06:23:57.021Z,13.44
2017-10-25T06:24:56.926Z,13.33
2017-10-25T06:26:51.497Z,13.33
2017-10-25T06:27:51.413Z,13.35
2017-10-25T06:29:46.101Z,13.35
2017-10-25T06:30:46.072Z,13.33
2017-10-25T06:32:39.506Z,13.30
2017-10-25T06:33:39.419Z,13.33
2017-10-25T06:35:32.811Z,13.42
2017-10-25T06:36:32.793Z,13.31
2017-10-25T06:38:26.182Z,13.39
2017-10-25T06:39:26.082Z,13.35
2017-10-25T06:41:19.665Z,13.44
2017-10-25T06:42:19.651Z,13.52
2017-10-25T06:44:13.227Z,13.46
2017-10-25T06:45:13.146Z,13.47
2017-10-25T06:47:07.623Z,13.54
2017-10-25T06:48:07.584Z,13.56
2017-10-25T06:50:01.285Z,13.53
2017-10-25T06:51:01.216Z,13.54
2017-10-25T06:52:55.573Z,13.57
2017-10-25T06:53:55.577Z,13.53
2017-10-25T06:55:48.932Z,13.62
2017-10-25T06:56:48.898Z,13.68
2017-10-25T06:58:42.267Z,13.70
2017-10-25T06:59:42.237Z,13.60
2017-10-25T07:01:36.015Z,13.70
2017-10-25T07:02:35.900Z,13.65
2017-10-25T07:04:30.628Z,13.75
2017-10-25T07:05:30.580Z,13.81
2017-10-25T07:07:25.236Z,13.95
2017-10-25T07:08:25.197Z,13.95
2017-10-25T07:10:19.850Z,13.92
2017-10-25T07:11:19.847Z,13.95
2017-10-25T07:13:14.557Z,13.97
2017-10-25T07:14:14.532Z,14.00
2017-10-25T07:16:09.204Z,14.12
2017-10-25T07:17:09.158Z,14.10
2017-10-25T07:19:03.856Z,14.07
2017-10-25T07:20:03.803Z,14.08
2017-10-25T07:21:58.614Z,14.12
2017-10-25T07:22:58.600Z,14.11
2017-10-25T07:24:53.399Z,14.20
2017-10-25T07:25:53.233Z,14.28
2017-10-25T07:27:47.743Z,14.14
2017-10-25T07:28:47.682Z,14.11
2017-10-25T07:30:41.372Z,14.26
2017-10-25T07:31:41.342Z,14.22
2017-10-25T07:33:35.680Z,14.30
2017-10-25T07:34:35.665Z,14.28
2017-10-25T07:36:29.037Z,14.30
2017-10-25T07:37:29.007Z,14.29
2017-10-25T07:39:22.420Z,14.36
2017-10-25T07:40:22.354Z,14.33
2017-10-25T07:42:16.815Z,14.28
2017-10-25T07:43:16.774Z,14.33
2017-10-25T07:45:11.425Z,14.45
2017-10-25T07:46:11.392Z,14.44
2017-10-25T07:48:06.052Z,14.44
2017-10-25T07:49:06.003Z,14.47
2017-10-25T07:50:59.526Z,14.62
2017-10-25T07:51:59.510Z,14.55
2017-10-25T07:53:53.059Z,14.72
2017-10-25T07:54:52.991Z,14.88
2017-10-25T07:56:49.266Z,14.79
2017-10-25T07:57:49.154Z,14.78
2017-10-25T07:59:43.865Z,14.66
2017-10-25T08:00:43.785Z,14.58
2017-10-25T08:02:37.123Z,14.58
2017-10-25T08:03:37.120Z,14.58
2017-10-25T08:05:30.496Z,14.55
2017-10-25T08:06:30.457Z,14.55
2017-10-25T08:08:23.821Z,14.60
2017-10-25T08:09:23.798Z,14.65
2017-10-25T08:11:16.704Z,14.69
2017-10-25T08:12:16.654Z,14.81
2017-10-25T08:14:12.805Z,14.60
2017-10-25T08:15:12.797Z,14.60
2017-10-25T08:17:06.510Z,14.70
2017-10-25T08:18:06.441Z,14.84
2017-10-25T08:20:01.126Z,14.92
2017-10-25T08:21:01.080Z,14.94
2017-10-25T08:22:54.679Z,14.85
2017-10-25T08:23:54.636Z,14.72
2017-10-25T08:25:49.352Z,14.88
2017-10-25T08:26:49.292Z,14.86
2017-10-25T08:28:43.992Z,14.96
2017-10-25T08:29:43.931Z,14.92
2017-10-25T08:31:38.363Z,14.99
2017-10-25T08:32:38.340Z,14.96
2017-10-25T08:34:31.917Z,15.02
2017-10-25T08:35:31.883Z,14.96
2017-10-25T08:37:26.552Z,14.96
2017-10-25T08:38:26.521Z,15.10
2017-10-25T08:40:21.334Z,15.09
2017-10-25T08:41:21.169Z,14.97
2017-10-25T08:43:15.944Z,15.06
2017-10-25T08:44:15.892Z,15.07
2017-10-25T08:46:10.579Z,15.00
2017-10-25T08:47:10.498Z,15.02
2017-10-25T08:49:04.264Z,15.07
2017-10-25T08:50:04.182Z,15.15
2017-10-25T08:51:58.678Z,15.52
2017-10-25T08:52:58.615Z,15.67
2017-10-25T08:54:53.268Z,15.70
2017-10-25T08:55:53.244Z,15.75
2017-10-25T08:57:47.965Z,15.76
2017-10-25T08:58:47.916Z,15.79
2017-10-25T09:00:41.577Z,15.84
2017-10-25T09:01:41.565Z,15.72
2017-10-25T09:03:36.949Z,15.75
2017-10-25T09:04:36.903Z,15.79
2017-10-25T09:06:33.089Z,15.84
2017-10-25T09:07:33.089Z,15.83
2017-10-25T09:09:27.782Z,15.86
2017-10-25T09:10:27.729Z,15.94
2017-10-25T09:12:22.451Z,16.15
2017-10-25T09:13:22.418Z,15.94
2017-10-25T09:15:16.151Z,16.00
2017-10-25T09:16:16.101Z,15.73
2017-10-25T09:18:10.803Z,15.79
2017-10-25T09:19:10.785Z,15.80
2017-10-25T09:21:06.502Z,15.67
2017-10-25T09:22:06.452Z,15.72
2017-10-25T09:24:00.113Z,15.76
2017-10-25T09:25:00.093Z,15.75
2017-10-25T09:26:54.799Z,15.70
2017-10-25T09:27:54.718Z,15.76
2017-10-25T09:29:48.112Z,15.80
2017-10-25T09:30:48.127Z,15.80
2017-10-25T09:32:41.512Z,16.05
2017-10-25T09:33:41.466Z,16.01
2017-10-25T09:35:34.893Z,16.00
2017-10-25T09:36:34.888Z,15.98
2017-10-25T09:38:29.546Z,15.84
2017-10-25T09:39:29.528Z,15.97
2017-10-25T09:41:24.246Z,16.01
2017-10-25T09:42:24.217Z,15.98
2017-10-25T09:44:17.752Z,15.90
2017-10-25T09:45:17.704Z,15.86
2017-10-25T09:47:11.363Z,15.79
2017-10-25T09:48:11.364Z,15.76
2017-10-25T09:50:06.016Z,15.76
2017-10-25T09:51:05.966Z,15.97
2017-10-25T09:53:00.685Z,16.65
2017-10-25T09:54:00.683Z,16.75
2017-10-25T09:55:55.327Z,17.45
2017-10-25T09:56:55.305Z,17.51
2017-10-25T09:58:49.962Z,17.44
2017-10-25T09:59:49.945Z,17.70
2017-10-25T10:01:43.592Z,18.22
2017-10-25T10:02:43.517Z,18.31
2017-10-25T10:04:37.163Z,18.10
2017-10-25T10:05:37.147Z,18.31
2017-10-25T10:07:33.395Z,17.92
2017-10-25T10:08:33.336Z,17.65
2017-10-25T10:10:27.025Z,17.57
2017-10-25T10:11:27.030Z,17.78
2017-10-25T10:13:21.753Z,18.41
2017-10-25T10:14:21.707Z,18.26
2017-10-25T10:16:16.434Z,18.59
2017-10-25T10:17:16.389Z,18.83
2017-10-25T10:19:11.093Z,18.45
2017-10-25T10:20:11.020Z,18.19
2017-10-25T10:22:05.729Z,18.07
2017-10-25T10:23:05.706Z,18.25
2017-10-25T10:25:00.422Z,18.65
2017-10-25T10:26:00.415Z,18.66
2017-10-25T10:27:55.094Z,18.47
2017-10-25T10:28:55.113Z,18.44
2017-10-25T10:30:49.814Z,18.66
2017-10-25T10:31:49.766Z,18.66
2017-10-25T10:33:44.420Z,18.52
2017-10-25T10:34:44.388Z,18.80
2017-10-25T10:36:39.113Z,18.71
2017-10-25T10:37:39.087Z,18.37
2017-10-25T10:39:33.558Z,18.34
2017-10-25T10:40:33.531Z,18.13
2017-10-25T10:42:27.306Z,18.60
2017-10-25T10:43:27.267Z,18.33
2017-10-25T10:45:21.913Z,18.86
2017-10-25T10:46:21.905Z,19.09
2017-10-25T10:48:18.092Z,19.55
2017-10-25T10:49:18.075Z,19.70
2017-10-25T10:51:12.510Z,18.92
2017-10-25T10:52:12.497Z,18.95
2017-10-25T10:54:06.078Z,19.30
2017-10-25T10:55:06.017Z,19.19
2017-10-25T10:57:00.714Z,19.34
2017-10-25T10:58:00.705Z,18.77
2017-10-25T10:59:55.484Z,18.58
2017-10-25T11:00:55.447Z,18.62
2017-10-25T11:02:50.137Z,18.70
2017-10-25T11:03:50.146Z,18.80
2017-10-25T11:05:44.865Z,18.86
2017-10-25T11:06:44.786Z,18.95
2017-10-25T11:08:39.498Z,18.80
2017-10-25T11:09:39.506Z,19.37
2017-10-25T11:11:34.225Z,20.04
2017-10-25T11:12:34.166Z,19.85
2017-10-25T11:14:28.841Z,19.69
2017-10-25T11:15:28.826Z,19.64
2017-10-25T11:17:23.502Z,19.94
2017-10-25T11:18:23.465Z,20.07
2017-10-25T11:20:18.146Z,19.58
2017-10-25T11:21:18.157Z,19.34
2017-10-25T11:23:12.892Z,19.56
2017-10-25T11:24:12.843Z,18.99
2017-10-25T11:26:07.550Z,18.98
2017-10-25T11:27:07.516Z,19.19
2017-10-25T11:29:01.241Z,19.81
2017-10-25T11:30:01.200Z,19.82
2017-10-25T11:31:55.867Z,19.76
2017-10-25T11:32:55.854Z,19.44
2017-10-25T11:34:50.513Z,18.84
2017-10-25T11:35:50.478Z,19.27
2017-10-25T11:37:44.210Z,19.16
2017-10-25T11:38:44.169Z,18.86
2017-10-25T11:40:38.894Z,19.16
2017-10-25T11:41:38.858Z,19.37
2017-10-25T11:43:33.511Z,19.44
2017-10-25T11:44:33.485Z,18.99
2017-10-25T11:46:28.348Z,18.74
2017-10-25T11:47:28.289Z,18.66
2017-10-25T11:49:22.983Z,19.22
2017-10-25T11:50:22.981Z,19.18
2017-10-25T11:52:17.424Z,19.27
2017-10-25T11:53:17.393Z,18.99
2017-10-25T11:55:12.055Z,19.19
2017-10-25T11:56:12.044Z,19.04
2017-10-25T11:58:05.820Z,19.30
2017-10-25T11:59:05.771Z,19.44
2017-10-25T12:00:59.452Z,19.52
2017-10-25T12:01:59.426Z,19.56
2017-10-25T12:03:54.151Z,19.86
2017-10-25T12:04:54.102Z,20.14
2017-10-25T12:06:47.808Z,20.29
2017-10-25T12:07:47.782Z,20.18
2017-10-25T12:09:42.520Z,20.18
2017-10-25T12:10:42.492Z,20.29
2017-10-25T12:12:37.212Z,20.11
2017-10-25T12:13:37.202Z,20.10
2017-10-25T12:15:31.940Z,19.94
2017-10-25T12:16:31.909Z,20.09
2017-10-25T12:18:26.582Z,20.66
2017-10-25T12:19:26.589Z,20.85
2017-10-25T12:21:21.398Z,21.39
2017-10-25T12:22:21.265Z,21.46
2017-10-25T12:24:15.967Z,21.70
2017-10-25T12:25:15.921Z,21.50
2017-10-25T12:27:10.648Z,21.09
2017-10-25T12:28:10.614Z,20.80
2017-10-25T12:30:05.262Z,20.29
2017-10-25T12:31:05.265Z,20.40
2017-10-25T12:32:59.975Z,20.77
2017-10-25T12:33:59.950Z,20.99
2017-10-25T12:35:53.638Z,21.52
2017-10-25T12:36:53.635Z,21.70
2017-10-25T12:38:48.386Z,21.21
2017-10-25T12:39:48.316Z,20.99
2017-10-25T12:41:43.215Z,21.36
2017-10-25T12:42:43.199Z,21.48
2017-10-25T12:44:37.938Z,21.83
2017-10-25T12:45:37.910Z,21.93
2017-10-25T12:47:34.054Z,22.48
2017-10-25T12:48:34.056Z,22.72
2017-10-25T12:50:28.752Z,22.45
2017-10-25T12:51:28.726Z,21.91
2017-10-25T12:53:24.947Z,21.62
2017-10-25T12:54:24.908Z,21.22
2017-10-25T12:56:19.637Z,20.96
2017-10-25T12:57:19.608Z,21.39
2017-10-25T12:59:14.458Z,21.51
2017-10-25T13:00:14.422Z,20.92
2017-10-25T13:02:10.627Z,20.59
2017-10-25T13:03:10.571Z,20.52
2017-10-25T13:05:04.275Z,20.41
2017-10-25T13:06:04.252Z,20.28
2017-10-25T13:07:58.751Z,20.41
2017-10-25T13:08:58.715Z,20.26
2017-10-25T13:10:53.406Z,19.96
2017-10-25T13:11:53.384Z,19.94
2017-10-25T13:13:49.343Z,20.60
2017-10-25T13:14:49.302Z,20.78
2017-10-25T13:16:44.022Z,21.15
2017-10-25T13:17:44.006Z,21.40
2017-10-25T13:19:38.803Z,22.10
2017-10-25T13:20:38.664Z,22.41
2017-10-25T13:22:32.433Z,22.75
2017-10-25T13:23:32.416Z,22.70
2017-10-25T13:25:26.921Z,23.40
2017-10-25T13:26:26.903Z,23.09
2017-10-25T13:28:21.598Z,22.98
2017-10-25T13:29:21.627Z,22.60
2017-10-25T13:31:17.664Z,22.38
2017-10-25T13:32:17.650Z,21.79
2017-10-25T13:34:12.218Z,21.32
2017-10-25T13:35:12.193Z,21.36
2017-10-25T13:37:06.976Z,20.96
2017-10-25T13:38:06.932Z,20.72
2017-10-25T13:40:01.675Z,20.44
2017-10-25T13:41:01.572Z,20.11
2017-10-25T13:42:56.206Z,20.13
2017-10-25T13:43:56.199Z,20.13
2017-10-25T13:45:50.888Z,19.73
2017-10-25T13:46:50.885Z,19.77
2017-10-25T13:48:45.616Z,19.73
2017-10-25T13:49:45.562Z,19.94
2017-10-25T13:51:40.142Z,20.03
2017-10-25T13:52:40.116Z,19.88
2017-10-25T13:54:36.360Z,19.89
2017-10-25T13:55:36.311Z,19.95
2017-10-25T13:57:31.023Z,19.96
2017-10-25T13:58:31.006Z,19.85
2017-10-25T14:00:27.243Z,20.10
2017-10-25T14:01:27.158Z,20.10
2017-10-25T14:03:21.830Z,20.13
2017-10-25T14:04:21.804Z,20.03
2017-10-25T14:06:16.561Z,20.43
2017-10-25T14:07:16.510Z,20.09
2017-10-25T14:09:11.142Z,20.02
2017-10-25T14:10:11.137Z,19.76
2017-10-25T14:12:07.433Z,19.55
2017-10-25T14:13:07.397Z,19.67
2017-10-25T14:15:01.884Z,19.44
2017-10-25T14:16:01.838Z,19.47
2017-10-25T14:17:55.634Z,19.34
2017-10-25T14:18:55.573Z,19.31
2017-10-25T14:20:51.756Z,19.08
2017-10-25T14:21:51.727Z,19.15
2017-10-25T14:23:46.456Z,19.14
2017-10-25T14:24:46.432Z,19.18
2017-10-25T14:26:40.093Z,19.09
2017-10-25T14:27:40.056Z,18.93
2017-10-25T14:29:34.772Z,19.18
2017-10-25T14:30:34.743Z,19.27
2017-10-25T14:32:29.452Z,19.44
2017-10-25T14:33:29.433Z,19.26
2017-10-25T14:35:24.502Z,19.22
2017-10-25T14:36:24.241Z,18.96
2017-10-25T14:38:18.072Z,18.90
2017-10-25T14:39:18.009Z,18.88
2017-10-25T14:41:11.541Z,19.09
2017-10-25T14:42:11.450Z,18.98
2017-10-25T14:44:05.194Z,19.22
2017-10-25T14:45:05.193Z,19.15
2017-10-25T14:47:00.009Z,19.11
2017-10-25T14:47:59.924Z,19.09
2017-10-25T14:49:54.653Z,19.00
2017-10-25T14:50:54.625Z,19.14
2017-10-25T14:52:49.427Z,18.86
2017-10-25T14:53:49.383Z,18.90
2017-10-25T14:55:44.099Z,19.14
2017-10-25T14:56:44.100Z,18.99
2017-10-25T14:58:38.784Z,18.89
2017-10-25T14:59:38.739Z,18.93
2017-10-25T15:01:33.453Z,18.88
2017-10-25T15:02:33.426Z,18.80
2017-10-25T15:04:28.129Z,19.18
2017-10-25T15:05:28.102Z,18.95
2017-10-25T15:07:22.796Z,18.80
2017-10-25T15:08:22.790Z,18.65
2017-10-25T15:10:17.538Z,18.44
2017-10-25T15:11:17.445Z,18.44
2017-10-25T15:13:11.406Z,18.28
2017-10-25T15:14:11.388Z,18.28
2017-10-25T15:16:06.200Z,18.15
2017-10-25T15:17:06.142Z,18.07
2017-10-25T15:19:02.379Z,18.08
2017-10-25T15:20:02.381Z,17.94
2017-10-25T15:21:56.111Z,17.95
2017-10-25T15:22:56.060Z,17.98
2017-10-25T15:24:49.765Z,17.95
2017-10-25T15:25:49.740Z,17.95
2017-10-25T15:27:44.494Z,17.94
2017-10-25T15:28:44.463Z,17.97
2017-10-25T15:30:39.203Z,17.97
2017-10-25T15:31:39.169Z,17.87
2017-10-25T15:33:32.926Z,17.87
2017-10-25T15:34:32.910Z,17.78
2017-10-25T15:36:27.362Z,17.97
2017-10-25T15:37:27.316Z,17.87
2017-10-25T15:39:21.802Z,17.70
2017-10-25T15:40:21.755Z,17.71
2017-10-25T15:42:16.454Z,17.70
2017-10-25T15:43:16.423Z,17.59
2017-10-25T15:45:11.081Z,17.59
2017-10-25T15:46:11.046Z,17.51
2017-10-25T15:48:05.881Z,17.64
2017-10-25T15:49:05.849Z,17.59
2017-10-25T15:51:00.298Z,17.44
2017-10-25T15:52:00.224Z,17.46
2017-10-25T15:53:55.111Z,17.31
2017-10-25T15:54:55.054Z,17.27
2017-10-25T15:56:48.785Z,17.19
2017-10-25T15:57:48.726Z,17.29
2017-10-25T15:59:44.910Z,17.15
2017-10-25T16:00:44.924Z,17.14
2017-10-25T16:02:41.115Z,17.12
2017-10-25T16:03:41.065Z,17.05
2017-10-25T16:05:37.096Z,17.12
2017-10-25T16:06:37.008Z,17.11
2017-10-25T16:08:31.828Z,16.94
2017-10-25T16:09:31.637Z,17.01
2017-10-25T16:11:26.615Z,16.87
2017-10-25T16:12:26.120Z,16.83
2017-10-25T16:14:20.563Z,16.71
2017-10-25T16:15:20.527Z,16.71
2017-10-25T16:17:14.956Z,16.61
2017-10-25T16:18:14.970Z,16.76
2017-10-25T16:20:09.811Z,16.71
2017-10-25T16:21:09.789Z,16.61
2017-10-25T16:23:04.485Z,16.68
2017-10-25T16:24:04.438Z,16.65
2017-10-25T16:25:59.286Z,16.54
2017-10-25T16:26:59.104Z,16.56
2017-10-25T16:28:55.384Z,16.60
2017-10-25T16:29:55.336Z,16.51
2017-10-25T16:31:50.102Z,16.58
2017-10-25T16:32:50.196Z,16.54
2017-10-25T16:34:45.309Z,16.54
2017-10-25T16:35:45.073Z,16.65
2017-10-25T16:37:39.888Z,16.56
2017-10-25T16:38:39.790Z,16.57
2017-10-25T16:40:36.091Z,16.61
2017-10-25T16:41:36.016Z,16.60
2017-10-25T16:43:30.823Z,16.53
2017-10-25T16:44:30.694Z,16.50
2017-10-25T16:46:37.247Z,16.54
2017-10-25T16:47:37.233Z,16.43
2017-10-25T16:49:31.929Z,16.43
2017-10-25T16:50:31.888Z,16.29
2017-10-25T16:52:26.682Z,16.32
2017-10-25T16:53:26.669Z,16.32
2017-10-25T16:55:23.178Z,16.35
2017-10-25T16:56:23.044Z,16.28
2017-10-25T16:58:17.929Z,16.38
2017-10-25T16:59:17.725Z,16.36
2017-10-25T17:01:12.351Z,16.28
2017-10-25T17:02:12.179Z,16.28
2017-10-25T17:04:18.784Z,16.29
2017-10-25T17:05:18.784Z,16.28
2017-10-25T17:07:12.667Z,16.17
2017-10-25T17:08:12.609Z,16.20
2017-10-25T17:10:07.311Z,16.10
2017-10-25T17:11:07.306Z,16.12
2017-10-25T17:13:02.286Z,16.21
2017-10-25T17:14:02.111Z,16.16
2017-10-25T17:15:57.137Z,16.05
2017-10-25T17:16:57.137Z,16.10
2017-10-25T17:18:52.021Z,16.17
2017-10-25T17:19:51.787Z,16.21
2017-10-25T17:21:57.649Z,16.24
2017-10-25T17:22:57.643Z,16.29
2017-10-25T17:27:27.429Z,16.28
2017-10-25T17:28:27.389Z,16.26
2017-10-25T17:30:20.248Z,16.29
2017-10-25T17:31:20.230Z,16.26
2017-10-25T17:33:13.109Z,16.13
2017-10-25T17:34:13.071Z,16.09
2017-10-25T17:36:05.920Z,16.12
2017-10-25T17:37:05.900Z,16.17
2017-10-25T17:38:58.790Z,16.17
2017-10-25T17:39:58.746Z,16.15
2017-10-25T17:41:51.607Z,16.23
2017-10-25T17:42:51.590Z,16.16
2017-10-25T17:44:44.467Z,16.09
2017-10-25T17:45:44.425Z,16.21
2017-10-25T17:47:37.277Z,16.10
2017-10-25T17:48:37.269Z,16.15
2017-10-25T17:50:30.133Z,16.09
2017-10-25T17:51:30.101Z,15.94
2017-10-25T17:53:22.956Z,15.98
2017-10-25T17:54:22.929Z,16.10
2017-10-25T17:56:15.814Z,16.02
2017-10-25T17:57:15.777Z,16.05
2017-10-25T17:59:08.687Z,15.98
2017-10-25T18:00:08.617Z,16.08
2017-10-25T18:02:01.998Z,16.20
2017-10-25T18:03:01.958Z,16.15
2017-10-25T18:04:54.829Z,16.01
2017-10-25T18:05:54.797Z,16.00
2017-10-25T18:07:48.171Z,16.09
2017-10-25T18:08:48.125Z,15.86
2017-10-25T18:10:40.981Z,15.92
2017-10-25T18:11:40.964Z,15.86
2017-10-25T18:13:33.844Z,15.75
2017-10-25T18:14:33.798Z,15.76
2017-10-25T18:16:27.162Z,15.90
2017-10-25T18:17:27.142Z,15.90
2017-10-25T18:19:20.530Z,16.04
2017-10-25T18:20:20.481Z,15.97
2017-10-25T18:22:13.379Z,16.12
2017-10-25T18:23:13.316Z,16.09
2017-10-25T18:25:06.202Z,16.04
2017-10-25T18:26:06.163Z,16.08
2017-10-25T18:27:59.024Z,16.05
2017-10-25T18:28:58.999Z,16.09
2017-10-25T18:30:51.874Z,16.09
2017-10-25T18:31:51.836Z,16.08
2017-10-25T18:33:45.193Z,16.12
2017-10-25T18:34:45.174Z,16.00
2017-10-25T18:36:38.053Z,16.05
2017-10-25T18:37:38.011Z,16.05
2017-10-25T18:39:30.879Z,16.05
2017-10-25T18:40:30.859Z,16.08
2017-10-25T18:42:23.749Z,16.12
2017-10-25T18:43:23.707Z,16.17
2017-10-25T18:45:16.567Z,16.15